createdAt,value
2022-12-15T00:00:59.886Z,11.25
2022-12-15T00:03:31.844Z,9.90
2022-12-15T00:06:03.666Z,8.60
2022-12-15T00:08:35.133Z,8.38
2022-12-15T00:11:06.633Z,8.63
2022-12-15T00:13:38.025Z,8.18
2022-12-15T00:16:09.509Z,8.55
2022-12-15T00:18:40.968Z,8.95
2022-12-15T00:21:12.405Z,7.68
2022-12-15T00:23:44.300Z,9.00
2022-12-15T00:26:15.742Z,10.30
2022-12-15T00:28:47.165Z,8.77
2022-12-15T00:31:18.622Z,11.55
2022-12-15T00:33:50.061Z,8.75
2022-12-15T00:36:21.518Z,8.68
2022-12-15T00:38:52.975Z,9.50
2022-12-15T00:41:24.364Z,9.65
2022-12-15T00:43:55.768Z,11.45
2022-12-15T00:46:27.268Z,10.02
2022-12-15T00:48:58.896Z,9.20
2022-12-15T00:51:30.329Z,9.50
2022-12-15T00:54:01.770Z,7.18
2022-12-15T00:56:33.180Z,8.00
2022-12-15T00:59:04.666Z,8.90
2022-12-15T01:01:36.327Z,8.27
2022-12-15T01:04:07.901Z,8.00
2022-12-15T01:06:39.488Z,10.02
2022-12-15T01:09:12.910Z,9.45
2022-12-15T01:11:45.394Z,7.82
2022-12-15T01:14:16.824Z,7.40
2022-12-15T01:16:48.228Z,8.40
2022-12-15T01:19:19.717Z,6.85
2022-12-15T01:21:51.143Z,7.20
2022-12-15T01:24:22.775Z,8.45
2022-12-15T01:26:54.173Z,7.15
2022-12-15T01:29:25.920Z,8.77
2022-12-15T01:31:57.446Z,6.80
2022-12-15T01:34:29.057Z,7.65
2022-12-15T01:37:00.532Z,6.95
2022-12-15T01:39:31.949Z,7.10
2022-12-15T01:42:03.553Z,7.88
2022-12-15T01:44:36.764Z,6.78
2022-12-15T01:47:13.421Z,9.03
2022-12-15T01:49:44.941Z,9.70
2022-12-15T01:52:16.876Z,9.82
2022-12-15T01:54:53.917Z,8.43
2022-12-15T01:57:31.573Z,11.30
2022-12-15T02:00:06.257Z,14.85
2022-12-15T02:02:40.584Z,9.88
2022-12-15T02:05:12.312Z,9.68
2022-12-15T02:07:43.771Z,11.48
2022-12-15T02:10:15.456Z,7.93
2022-12-15T02:16:00.023Z,7.47
2022-12-15T02:19:00.979Z,8.73
2022-12-15T02:21:41.673Z,9.00
2022-12-15T02:24:24.872Z,9.63
2022-12-15T02:27:15.769Z,10.05
2022-12-15T02:30:05.869Z,9.52
2022-12-15T02:32:43.194Z,10.87
2022-12-15T02:35:28.552Z,13.07
2022-12-15T02:38:00.577Z,9.60
2022-12-15T02:40:32.168Z,9.82
2022-12-15T02:43:06.121Z,10.90
2022-12-15T02:45:59.543Z,9.90
2022-12-15T02:48:44.069Z,11.37
2022-12-15T02:51:22.599Z,12.27
2022-12-15T02:54:12.616Z,11.27
2022-12-15T02:56:54.260Z,11.02
2022-12-15T02:59:36.025Z,16.52
2022-12-15T03:02:09.593Z,12.95
2022-12-15T03:04:43.218Z,17.23
2022-12-15T03:07:14.667Z,19.42
2022-12-15T03:09:46.046Z,15.30
2022-12-15T03:12:17.533Z,17.00
2022-12-15T03:14:49.050Z,17.15
2022-12-15T03:17:20.478Z,21.17
2022-12-15T03:19:51.921Z,18.88
2022-12-15T03:22:23.398Z,17.73
2022-12-15T03:24:54.794Z,21.45
2022-12-15T03:27:26.241Z,21.83
2022-12-15T03:29:57.640Z,21.50
2022-12-15T03:32:29.661Z,21.58
2022-12-15T03:35:01.148Z,17.73
2022-12-15T03:37:32.576Z,23.02
2022-12-15T03:40:04.395Z,20.60
2022-12-15T03:42:35.796Z,21.02
2022-12-15T03:45:07.602Z,20.10
2022-12-15T03:47:42.548Z,23.47
2022-12-15T03:50:17.813Z,22.92
2022-12-15T03:52:54.220Z,20.42
2022-12-15T03:55:26.036Z,21.85
2022-12-15T03:57:57.994Z,20.63
2022-12-15T04:00:29.372Z,22.70
2022-12-15T04:03:00.884Z,21.45
2022-12-15T04:05:34.315Z,26.20
2022-12-15T04:08:06.097Z,21.77
2022-12-15T04:10:37.509Z,16.65
2022-12-15T04:13:10.327Z,14.80
2022-12-15T04:15:41.752Z,21.45
2022-12-15T04:18:13.240Z,22.73
2022-12-15T04:20:44.686Z,22.30
2022-12-15T04:23:16.142Z,21.05
2022-12-15T04:25:47.998Z,18.38
2022-12-15T04:28:19.420Z,18.05
2022-12-15T04:30:54.805Z,19.65
2022-12-15T04:33:30.552Z,15.98
2022-12-15T04:36:02.718Z,17.45
2022-12-15T04:38:34.426Z,16.55
2022-12-15T04:41:06.160Z,18.30
2022-12-15T04:43:37.661Z,14.70
2022-12-15T04:46:09.148Z,14.90
2022-12-15T04:48:40.582Z,16.35
2022-12-15T04:51:11.965Z,14.18
2022-12-15T04:53:44.749Z,18.33
2022-12-15T04:56:19.674Z,18.67
2022-12-15T04:58:51.076Z,19.02
2022-12-15T05:01:22.682Z,15.77
2022-12-15T05:03:54.246Z,14.18
2022-12-15T05:06:25.684Z,13.10
2022-12-15T05:08:57.130Z,17.73
2022-12-15T05:11:28.507Z,14.38
2022-12-15T05:13:59.906Z,20.63
2022-12-15T05:16:31.302Z,16.55
2022-12-15T05:19:02.709Z,17.23
2022-12-15T05:21:34.134Z,15.73
2022-12-15T05:24:05.802Z,20.05
2022-12-15T05:26:37.653Z,12.35
2022-12-15T05:29:09.081Z,14.90
2022-12-15T05:31:40.546Z,13.10
2022-12-15T05:34:12.302Z,15.93
2022-12-15T05:36:43.748Z,13.30
2022-12-15T05:39:15.145Z,13.65
2022-12-15T05:41:46.662Z,14.25
2022-12-15T05:44:18.631Z,12.93
2022-12-15T05:46:50.383Z,15.82
2022-12-15T05:49:21.836Z,13.50
2022-12-15T05:51:53.372Z,14.27
2022-12-15T05:54:24.797Z,14.18
2022-12-15T05:56:56.221Z,11.93
2022-12-15T05:59:27.669Z,14.87
2022-12-15T06:01:59.240Z,11.95
2022-12-15T06:04:30.723Z,14.32
2022-12-15T06:07:02.161Z,12.77
2022-12-15T06:09:33.541Z,15.30
2022-12-15T06:12:05.129Z,13.50
2022-12-15T06:14:36.532Z,10.93
2022-12-15T06:17:08.010Z,12.27
2022-12-15T06:19:39.453Z,10.02
2022-12-15T06:22:10.854Z,11.90
2022-12-15T06:24:42.264Z,11.05
2022-12-15T06:27:13.709Z,9.40
2022-12-15T06:29:45.176Z,11.55
2022-12-15T06:32:16.595Z,11.60
2022-12-15T06:34:48.451Z,6.50
2022-12-15T06:37:19.897Z,9.63
2022-12-15T06:39:51.312Z,7.55
2022-12-15T06:42:22.763Z,10.43
2022-12-15T06:44:54.184Z,9.82
2022-12-15T06:47:25.642Z,10.90
2022-12-15T06:49:57.094Z,9.98
2022-12-15T06:52:28.550Z,12.40
2022-12-15T06:54:59.962Z,9.97
2022-12-15T06:57:31.418Z,10.30
2022-12-15T07:00:04.681Z,9.27
2022-12-15T07:02:36.278Z,7.32
2022-12-15T07:05:07.994Z,11.27
2022-12-15T07:07:39.505Z,9.88
2022-12-15T07:10:10.937Z,10.15
2022-12-15T07:12:42.339Z,10.10
2022-12-15T07:15:13.829Z,10.05
2022-12-15T07:17:45.273Z,9.05
2022-12-15T07:20:16.961Z,7.50
2022-12-15T07:22:52.424Z,10.88
2022-12-15T07:25:24.211Z,12.35
2022-12-15T07:27:55.588Z,10.95
2022-12-15T07:30:27.294Z,7.55
2022-12-15T07:32:59.152Z,11.07
2022-12-15T07:35:31.588Z,6.00
2022-12-15T07:38:07.000Z,9.30
2022-12-15T07:40:38.450Z,10.68
2022-12-15T07:43:09.858Z,10.95
2022-12-15T07:45:42.797Z,11.38
2022-12-15T07:48:16.990Z,5.50
2022-12-15T07:50:48.395Z,8.20
2022-12-15T07:53:21.874Z,9.40
2022-12-15T07:56:07.341Z,9.82
2022-12-15T07:58:39.280Z,9.48
2022-12-15T08:01:13.508Z,8.93
2022-12-15T08:03:45.160Z,9.27
2022-12-15T08:06:16.822Z,6.50
2022-12-15T08:08:51.097Z,8.30
2022-12-15T08:11:23.229Z,7.55
2022-12-15T08:14:03.620Z,8.52
2022-12-15T08:16:35.878Z,8.37
2022-12-15T08:19:10.736Z,8.30
2022-12-15T08:21:43.546Z,8.60
2022-12-15T08:24:15.552Z,10.00
2022-12-15T08:26:50.569Z,11.17
2022-12-15T08:29:50.285Z,8.15
2022-12-15T08:32:13.632Z,10.70
2022-12-15T08:34:45.098Z,11.82
2022-12-15T08:37:16.975Z,9.95
2022-12-15T08:39:48.451Z,8.43
2022-12-15T08:42:19.855Z,14.07
2022-12-15T08:44:51.607Z,8.55
2022-12-15T08:47:23.039Z,12.30
2022-12-15T08:49:54.546Z,12.60
2022-12-15T08:52:25.995Z,14.15
2022-12-15T08:54:57.443Z,12.57
2022-12-15T08:57:28.819Z,13.63
2022-12-15T09:00:00.212Z,12.20
2022-12-15T09:02:32.402Z,11.30
2022-12-15T09:05:04.093Z,11.43
2022-12-15T09:07:35.641Z,10.75
2022-12-15T09:10:07.565Z,11.93
2022-12-15T09:12:38.985Z,10.77
2022-12-15T09:15:10.585Z,10.77
2022-12-15T09:17:42.039Z,11.02
2022-12-15T09:20:17.635Z,10.10
2022-12-15T09:22:50.487Z,12.55
2022-12-15T09:25:21.954Z,12.23
2022-12-15T09:27:53.392Z,12.52
2022-12-15T09:30:24.992Z,12.00
2022-12-15T09:32:56.561Z,13.67
2022-12-15T09:35:28.344Z,13.25
2022-12-15T09:37:59.774Z,10.80
2022-12-15T09:40:31.285Z,10.70
2022-12-15T09:43:32.772Z,10.18
2022-12-15T09:46:06.910Z,9.70
2022-12-15T09:48:41.606Z,11.70
2022-12-15T09:51:17.800Z,11.07
2022-12-15T09:53:56.961Z,11.43
2022-12-15T09:56:42.906Z,15.43
2022-12-15T09:59:29.046Z,12.48
2022-12-15T10:02:21.854Z,10.48
2022-12-15T10:05:12.128Z,11.35
2022-12-15T10:07:46.173Z,12.55
2022-12-15T10:10:42.955Z,10.10
2022-12-15T10:13:34.328Z,10.30
2022-12-15T10:16:17.397Z,7.28
2022-12-15T10:19:01.723Z,10.77
2022-12-15T10:21:34.077Z,8.77
2022-12-15T10:24:15.444Z,14.52
2022-12-15T10:27:02.736Z,10.77
2022-12-15T10:29:50.711Z,9.07
2022-12-15T10:32:57.833Z,11.32
2022-12-15T10:35:35.245Z,9.63
2022-12-15T10:38:21.684Z,9.30
2022-12-15T10:40:59.741Z,12.07
2022-12-15T10:43:36.164Z,11.52
2022-12-15T10:46:30.735Z,10.07
2022-12-15T10:49:07.934Z,12.88
2022-12-15T10:51:44.830Z,11.85
2022-12-15T10:54:18.137Z,13.83
2022-12-15T10:56:55.118Z,13.13
2022-12-15T10:59:32.050Z,12.00
2022-12-15T11:02:24.440Z,9.82
2022-12-15T11:05:11.599Z,10.75
2022-12-15T11:07:53.574Z,12.63
2022-12-15T11:10:28.616Z,11.73
2022-12-15T11:13:17.449Z,10.02
2022-12-15T11:15:53.467Z,11.65
2022-12-15T11:18:42.684Z,14.00
2022-12-15T11:21:22.457Z,11.95
2022-12-15T11:23:59.990Z,9.93
2022-12-15T11:26:40.402Z,12.05
2022-12-15T11:29:17.913Z,10.93
2022-12-15T11:31:51.745Z,12.00
2022-12-15T11:34:31.996Z,11.77
2022-12-15T11:37:36.438Z,8.60
2022-12-15T11:40:23.348Z,10.13
2022-12-15T11:43:09.931Z,10.50
2022-12-15T11:46:09.320Z,12.48
2022-12-15T11:48:49.380Z,10.82
2022-12-15T11:51:55.903Z,11.52
2022-12-15T11:54:37.012Z,9.88
2022-12-15T11:57:23.719Z,11.57
2022-12-15T12:00:05.580Z,10.15
2022-12-15T12:03:10.679Z,11.93
2022-12-15T12:06:08.747Z,8.82
2022-12-15T12:09:02.949Z,9.05
2022-12-15T12:11:48.837Z,7.32
2022-12-15T12:14:52.837Z,8.35
2022-12-15T12:17:51.744Z,9.87
2022-12-15T12:20:43.717Z,11.67
2022-12-15T12:23:21.700Z,9.13
2022-12-15T12:26:12.476Z,7.05
2022-12-15T12:29:00.933Z,8.13
2022-12-15T12:31:46.867Z,7.80
2022-12-15T12:34:46.584Z,9.48
2022-12-15T12:37:36.292Z,8.90
2022-12-15T12:40:30.922Z,6.72
2022-12-15T12:43:08.655Z,6.73
2022-12-15T12:45:51.729Z,9.60
2022-12-15T12:48:34.053Z,8.52
2022-12-15T12:51:28.828Z,6.00
2022-12-15T12:54:01.023Z,6.68
2022-12-15T12:56:50.452Z,8.48
2022-12-15T12:59:28.251Z,7.90
2022-12-15T13:02:15.261Z,4.97
2022-12-15T13:05:09.355Z,5.88
2022-12-15T13:07:41.124Z,4.45
2022-12-15T13:10:21.472Z,5.95
2022-12-15T13:12:55.414Z,5.10
2022-12-15T13:15:29.567Z,6.28
2022-12-15T13:18:07.375Z,4.57
2022-12-15T13:20:40.052Z,5.33
2022-12-15T13:23:20.291Z,5.22
2022-12-15T13:25:57.520Z,5.37
2022-12-15T13:28:43.386Z,4.80
2022-12-15T13:31:25.857Z,4.43
2022-12-15T13:34:18.130Z,3.15
2022-12-15T13:36:55.052Z,3.97
2022-12-15T13:39:29.849Z,3.92
2022-12-15T13:42:32.095Z,2.57
2022-12-15T13:44:57.408Z,3.33
2022-12-15T13:47:30.052Z,3.78
2022-12-15T13:50:03.357Z,3.30
2022-12-15T13:55:52.218Z,3.20
2022-12-15T13:58:24.669Z,3.60
2022-12-15T14:00:57.522Z,7.05
2022-12-15T14:03:29.054Z,3.75
2022-12-15T14:06:01.386Z,4.80
2022-12-15T14:08:32.897Z,4.18
2022-12-15T14:11:22.484Z,2.83
2022-12-15T14:14:00.372Z,3.67
2022-12-15T14:16:34.696Z,3.97
2022-12-15T14:19:14.320Z,3.80
2022-12-15T14:21:53.521Z,2.90
2022-12-15T14:24:40.445Z,2.45
2022-12-15T14:27:26.209Z,2.93
2022-12-15T14:30:23.867Z,5.63
2022-12-15T14:32:58.192Z,7.17
2022-12-15T14:35:37.644Z,4.50
2022-12-15T14:38:16.645Z,4.38
2022-12-15T14:40:50.597Z,3.13
2022-12-15T14:43:31.984Z,7.35
2022-12-15T14:46:11.232Z,3.15
2022-12-15T14:49:02.961Z,7.55
2022-12-15T14:51:44.143Z,6.75
2022-12-15T14:54:36.053Z,7.35
2022-12-15T14:57:13.667Z,5.43
2022-12-15T14:59:46.225Z,5.32
2022-12-15T15:02:24.314Z,7.43
2022-12-15T15:04:56.966Z,9.65
2022-12-15T15:07:29.130Z,6.20
2022-12-15T15:10:19.981Z,10.05
2022-12-15T15:12:52.925Z,6.47
2022-12-15T15:15:26.539Z,6.93
2022-12-15T15:17:59.769Z,6.95
2022-12-15T15:20:33.893Z,4.50
2022-12-15T15:23:08.264Z,7.07
2022-12-15T15:26:05.861Z,6.40
2022-12-15T15:28:42.882Z,8.63
2022-12-15T15:31:41.315Z,7.57
2022-12-15T15:34:13.079Z,7.25
2022-12-15T15:36:44.669Z,8.10
2022-12-15T15:39:16.117Z,7.07
2022-12-15T15:41:47.582Z,6.47
2022-12-15T15:44:18.968Z,5.43
2022-12-15T15:46:52.416Z,6.47
2022-12-15T15:49:23.866Z,5.82
2022-12-15T15:51:56.380Z,6.72
2022-12-15T15:54:35.052Z,5.35
2022-12-15T15:57:06.486Z,8.75
2022-12-15T15:59:37.914Z,6.97
2022-12-15T16:02:11.404Z,7.13
2022-12-15T16:04:44.025Z,7.43
2022-12-15T16:07:22.077Z,10.43
2022-12-15T16:09:54.560Z,11.63
2022-12-15T16:12:35.908Z,10.18
2022-12-15T16:15:18.897Z,10.30
2022-12-15T16:17:50.331Z,10.65
2022-12-15T16:20:24.801Z,10.00
2022-12-15T16:23:02.100Z,9.18
2022-12-15T16:25:46.903Z,9.38
2022-12-15T16:28:23.728Z,9.43
2022-12-15T16:30:56.582Z,7.60
2022-12-15T16:33:28.202Z,11.23
2022-12-15T16:35:59.661Z,10.73
2022-12-15T16:38:32.281Z,11.10
2022-12-15T16:41:10.681Z,11.02
2022-12-15T16:43:47.726Z,9.83
2022-12-15T16:46:19.910Z,16.25
2022-12-15T16:48:51.884Z,13.88
2022-12-15T16:51:44.890Z,11.57
2022-12-15T16:54:25.717Z,13.77
2022-12-15T16:56:58.751Z,16.52
2022-12-15T16:59:34.660Z,16.38
2022-12-15T17:02:24.435Z,17.70
2022-12-15T17:04:56.125Z,15.65
2022-12-15T17:07:27.979Z,13.98
2022-12-15T17:09:59.605Z,12.95
2022-12-15T17:12:31.767Z,14.60
2022-12-15T17:15:03.501Z,15.13
2022-12-15T17:17:34.904Z,14.85
2022-12-15T17:23:04.473Z,13.20
2022-12-15T17:26:17.238Z,15.10
2022-12-15T17:28:33.519Z,9.03
2022-12-15T17:31:05.115Z,12.93
2022-12-15T17:33:36.596Z,9.05
2022-12-15T17:36:16.152Z,11.02
2022-12-15T17:38:55.273Z,9.68
2022-12-15T17:41:59.186Z,8.35
2022-12-15T17:44:34.984Z,9.33
2022-12-15T17:47:08.580Z,8.93
2022-12-15T17:49:40.429Z,8.20
2022-12-15T17:52:31.215Z,8.40
2022-12-15T17:55:04.036Z,6.90
2022-12-15T17:57:35.534Z,5.18
2022-12-15T18:00:31.450Z,3.92
2022-12-15T18:03:03.035Z,5.90
2022-12-15T18:05:34.988Z,4.53
2022-12-15T18:08:26.723Z,5.17
2022-12-15T18:10:58.200Z,5.63
2022-12-15T18:13:35.028Z,6.38
2022-12-15T18:16:07.131Z,6.03
2022-12-15T18:18:38.609Z,9.95
2022-12-15T18:21:15.263Z,6.72
2022-12-15T18:23:47.244Z,5.70
2022-12-15T18:26:18.679Z,4.07
2022-12-15T18:28:50.129Z,6.95
2022-12-15T18:31:25.594Z,6.13
2022-12-15T18:34:04.017Z,5.57
2022-12-15T18:36:36.289Z,8.40
2022-12-15T18:39:22.961Z,5.13
2022-12-15T18:41:54.382Z,7.05
2022-12-15T18:44:28.909Z,7.40
2022-12-15T18:47:00.362Z,9.32
2022-12-15T18:49:31.829Z,7.35
2022-12-15T18:52:03.328Z,8.18
2022-12-15T18:54:35.304Z,14.02
2022-12-15T18:57:25.668Z,8.98
2022-12-15T19:00:06.680Z,10.23
2022-12-15T19:02:38.373Z,11.63
2022-12-15T19:05:10.351Z,10.67
2022-12-15T19:07:41.787Z,10.23
2022-12-15T19:10:14.545Z,12.63
2022-12-15T19:12:45.997Z,11.35
2022-12-15T19:15:19.008Z,11.63
2022-12-15T19:17:50.453Z,12.73
2022-12-15T19:20:22.437Z,16.55
2022-12-15T19:22:53.837Z,11.40
2022-12-15T19:25:29.411Z,11.85
2022-12-15T19:28:01.275Z,19.30
2022-12-15T19:30:38.518Z,14.83
2022-12-15T19:33:12.859Z,17.73
2022-12-15T19:35:51.279Z,19.73
2022-12-15T19:38:29.620Z,18.80
2022-12-15T19:41:01.057Z,16.50
2022-12-15T19:43:32.913Z,15.18
2022-12-15T19:46:04.801Z,17.63
2022-12-15T19:48:36.208Z,19.58
2022-12-15T19:51:13.361Z,15.52
2022-12-15T19:53:46.601Z,21.75
2022-12-15T19:56:21.929Z,20.85
2022-12-15T19:58:53.405Z,19.80
2022-12-15T20:01:24.996Z,20.30
2022-12-15T20:03:57.007Z,15.45
2022-12-15T20:06:28.585Z,17.50
2022-12-15T20:08:59.982Z,15.45
2022-12-15T20:11:32.758Z,14.80
2022-12-15T20:14:12.023Z,15.13
2022-12-15T20:16:44.336Z,23.35
2022-12-15T20:19:17.181Z,17.73
2022-12-15T20:21:48.657Z,14.20
2022-12-15T20:24:20.134Z,17.02
2022-12-15T20:26:51.571Z,12.98
2022-12-15T20:29:26.181Z,16.42
2022-12-15T20:32:00.343Z,17.48
2022-12-15T20:34:31.832Z,17.42
2022-12-15T20:37:04.357Z,12.47
2022-12-15T20:39:35.809Z,13.48
2022-12-15T20:42:13.729Z,14.70
2022-12-15T20:44:45.184Z,14.35
2022-12-15T20:47:23.552Z,7.80
2022-12-15T20:49:55.394Z,13.95
2022-12-15T20:52:27.118Z,10.43
2022-12-15T20:54:58.526Z,11.60
2022-12-15T20:57:29.971Z,10.88
2022-12-15T21:00:01.467Z,7.63
2022-12-15T21:02:33.017Z,10.93
2022-12-15T21:05:04.864Z,12.50
2022-12-15T21:07:36.341Z,15.73
2022-12-15T21:10:08.856Z,14.45
2022-12-15T21:12:41.085Z,14.60
2022-12-15T21:15:22.249Z,13.48
2022-12-15T21:18:19.825Z,12.75
2022-12-15T21:20:49.774Z,13.63
2022-12-15T21:23:26.767Z,9.80
2022-12-15T21:26:01.412Z,8.93
2022-12-15T21:28:33.273Z,9.80
2022-12-15T21:31:05.021Z,9.45
2022-12-15T21:33:36.476Z,10.15
2022-12-15T21:36:13.722Z,9.55
2022-12-15T21:38:50.176Z,9.10
2022-12-15T21:41:23.499Z,8.87
2022-12-15T21:43:55.042Z,7.57
2022-12-15T21:46:28.431Z,7.03
2022-12-15T21:49:00.189Z,6.28
2022-12-15T21:51:38.046Z,6.60
2022-12-15T21:54:26.007Z,5.80
2022-12-15T21:57:01.031Z,9.02
2022-12-15T21:59:32.940Z,9.33
2022-12-15T22:02:26.631Z,5.97
2022-12-15T22:04:58.212Z,7.53
2022-12-15T22:07:29.656Z,13.82
2022-12-15T22:10:01.105Z,11.20
2022-12-15T22:12:32.589Z,8.85
2022-12-15T22:15:04.365Z,8.00
2022-12-15T22:17:35.835Z,10.67
2022-12-15T22:20:13.764Z,8.50
2022-12-15T22:22:46.077Z,12.00
2022-12-15T22:25:23.296Z,8.18
2022-12-15T22:27:55.127Z,11.02
2022-12-15T22:30:26.877Z,9.07
2022-12-15T22:32:58.312Z,8.90
2022-12-15T22:35:29.702Z,8.75
2022-12-15T22:38:01.127Z,7.15
2022-12-15T22:40:32.609Z,9.45
2022-12-15T22:43:04.915Z,11.35
2022-12-15T22:45:41.181Z,7.68
2022-12-15T22:48:14.936Z,7.88
2022-12-15T22:50:46.352Z,8.13
2022-12-15T22:53:19.085Z,7.15
2022-12-15T22:55:50.514Z,8.75
2022-12-15T22:58:36.486Z,9.40
2022-12-15T23:01:10.033Z,10.87
2022-12-15T23:03:41.451Z,8.45
2022-12-15T23:06:12.950Z,8.05
2022-12-15T23:08:44.395Z,9.75
2022-12-15T23:11:15.805Z,8.77
2022-12-15T23:13:47.295Z,12.60
2022-12-15T23:16:18.868Z,9.77
2022-12-15T23:18:55.134Z,12.23
2022-12-15T23:21:26.634Z,11.32
2022-12-15T23:23:58.102Z,8.60
2022-12-15T23:26:29.556Z,12.50
2022-12-15T23:29:00.989Z,5.53
2022-12-15T23:31:32.502Z,8.20
2022-12-15T23:34:04.083Z,7.10
2022-12-15T23:36:35.626Z,13.18
2022-12-15T23:39:07.128Z,12.37
2022-12-15T23:41:40.251Z,7.10
2022-12-15T23:44:11.636Z,9.95
2022-12-15T23:46:43.065Z,8.00
2022-12-15T23:49:14.531Z,9.30
2022-12-15T23:51:45.910Z,9.88
2022-12-15T23:54:17.342Z,7.67
2022-12-15T23:56:48.794Z,9.43
2022-12-15T23:59:20.378Z,8.55
